createdAt,value
2022-11-20T00:02:13.128Z,100734.80
2022-11-20T00:04:41.973Z,100737.20
2022-11-20T00:07:10.600Z,100731.60
2022-11-20T00:09:39.141Z,100731.60
2022-11-20T00:12:07.725Z,100730.00
2022-11-20T00:14:36.309Z,100731.40
2022-11-20T00:17:04.894Z,100728.00
2022-11-20T00:19:33.786Z,100735.40
2022-11-20T00:22:02.372Z,100734.00
2022-11-20T00:24:31.058Z,100734.40
2022-11-20T00:26:59.642Z,100733.80
2022-11-20T00:29:28.230Z,100729.60
2022-11-20T00:31:56.913Z,100733.60
2022-11-20T00:34:25.601Z,100736.20
2022-11-20T00:36:54.388Z,100736.60
2022-11-20T00:39:23.460Z,100732.80
2022-11-20T00:41:52.479Z,100734.60
2022-11-20T00:44:20.961Z,100735.20
2022-11-20T00:46:49.545Z,100735.80
2022-11-20T00:49:18.460Z,100741.60
2022-11-20T00:51:47.430Z,100737.00
2022-11-20T00:54:16.118Z,100736.40
2022-11-20T00:56:44.714Z,100739.80
2022-11-20T00:59:13.491Z,100737.60
2022-11-20T01:01:42.283Z,100737.40
2022-11-20T01:04:11.072Z,100740.60
2022-11-20T01:06:41.096Z,100738.80
2022-11-20T01:09:14.487Z,100740.80
2022-11-20T01:11:45.448Z,100744.60
2022-11-20T01:14:18.562Z,100738.80
2022-11-20T01:16:51.700Z,100740.20
2022-11-20T01:19:24.183Z,100740.20
2022-11-20T01:21:55.289Z,100742.60
2022-11-20T01:24:24.735Z,100737.80
2022-11-20T01:26:53.623Z,100740.20
2022-11-20T01:29:25.476Z,100740.60
2022-11-20T01:31:54.588Z,100737.60
2022-11-20T01:34:23.920Z,100734.60
2022-11-20T01:36:54.749Z,100737.40
2022-11-20T01:39:27.284Z,100737.40
2022-11-20T01:42:15.753Z,100735.20
2022-11-20T01:44:53.752Z,100729.20
2022-11-20T01:47:40.973Z,100729.40
2022-11-20T01:50:22.261Z,100725.40
2022-11-20T01:52:59.935Z,100719.40
2022-11-20T01:55:34.467Z,100723.00
2022-11-20T01:58:05.248Z,100716.40
2022-11-20T02:00:34.310Z,100716.80
2022-11-20T02:03:10.549Z,100716.20
2022-11-20T02:05:58.926Z,100714.80
2022-11-20T02:08:27.509Z,100709.40
2022-11-20T02:10:56.195Z,100714.80
2022-11-20T02:13:43.837Z,100712.20
2022-11-20T02:16:21.124Z,100712.40
2022-11-20T02:18:50.720Z,100709.00
2022-11-20T02:21:50.037Z,100711.60
2022-11-20T02:24:21.310Z,100709.60
2022-11-20T02:27:00.305Z,100715.00
2022-11-20T02:29:40.631Z,100712.80
2022-11-20T02:32:29.687Z,100713.00
2022-11-20T02:34:58.379Z,100710.60
2022-11-20T02:37:35.395Z,100710.00
2022-11-20T02:40:05.210Z,100712.20
2022-11-20T02:42:33.794Z,100704.20
2022-11-20T02:45:02.484Z,100706.60
2022-11-20T02:47:31.681Z,100701.60
2022-11-20T02:50:00.459Z,100702.00
2022-11-20T02:52:28.909Z,100698.00
2022-11-20T02:54:57.839Z,100696.60
2022-11-20T02:57:26.528Z,100691.40
2022-11-20T02:59:55.214Z,100688.60
2022-11-20T03:02:23.799Z,100689.80
2022-11-20T03:04:52.588Z,100692.60
2022-11-20T03:07:21.115Z,100688.40
2022-11-20T03:09:49.861Z,100691.00
2022-11-20T03:12:18.448Z,100690.00
2022-11-20T03:14:52.592Z,100691.60
2022-11-20T03:17:21.757Z,100693.60
2022-11-20T03:19:50.446Z,100695.20
2022-11-20T03:22:18.926Z,100690.80
2022-11-20T03:24:47.512Z,100691.20
2022-11-20T03:27:15.991Z,100685.00
2022-11-20T03:29:44.679Z,100680.80
2022-11-20T03:32:13.265Z,100680.40
2022-11-20T03:34:41.957Z,100674.80
2022-11-20T03:37:10.847Z,100678.60
2022-11-20T03:39:39.327Z,100676.20
2022-11-20T03:42:27.985Z,100669.00
2022-11-20T03:44:56.875Z,100666.40
2022-11-20T03:47:25.458Z,100664.20
2022-11-20T03:49:54.143Z,100666.60
2022-11-20T03:52:22.582Z,100663.80
2022-11-20T03:54:51.311Z,100659.80
2022-11-20T03:57:19.997Z,100653.60
2022-11-20T03:59:48.584Z,100662.20
2022-11-20T04:02:17.235Z,100664.20
2022-11-20T04:04:45.960Z,100665.20
2022-11-20T04:07:14.483Z,100665.60
2022-11-20T04:09:43.131Z,100668.20
2022-11-20T04:12:11.609Z,100664.40
2022-11-20T04:14:40.304Z,100666.40
2022-11-20T04:17:08.879Z,100663.80
2022-11-20T04:19:37.464Z,100663.20
2022-11-20T04:22:06.151Z,100667.60
2022-11-20T04:24:34.836Z,100666.60
2022-11-20T04:27:03.420Z,100668.00
2022-11-20T04:29:32.008Z,100670.00
2022-11-20T04:32:00.589Z,100667.00
2022-11-20T04:34:29.174Z,100660.60
2022-11-20T04:36:57.655Z,100661.80
2022-11-20T04:39:26.239Z,100661.20
2022-11-20T04:42:14.792Z,100656.80
2022-11-20T04:44:43.375Z,100655.60
2022-11-20T04:47:11.961Z,100653.20
2022-11-20T04:49:40.570Z,100655.20
2022-11-20T04:52:09.232Z,100647.40
2022-11-20T04:54:37.815Z,100645.80
2022-11-20T04:57:11.361Z,100642.80
2022-11-20T04:59:42.975Z,100651.40
2022-11-20T05:02:13.056Z,100651.40
2022-11-20T05:04:41.575Z,100650.80
2022-11-20T05:07:10.187Z,100654.20
2022-11-20T05:09:38.949Z,100654.20
2022-11-20T05:12:09.820Z,100656.40
2022-11-20T05:14:38.371Z,100658.80
2022-11-20T05:17:07.159Z,100660.60
2022-11-20T05:19:35.744Z,100657.00
2022-11-20T05:22:05.763Z,100660.60
2022-11-20T05:24:34.352Z,100656.00
2022-11-20T05:27:03.138Z,100652.40
2022-11-20T05:29:31.720Z,100653.00
2022-11-20T05:32:00.307Z,100656.00
2022-11-20T05:34:28.993Z,100660.80
2022-11-20T05:36:57.578Z,100656.40
2022-11-20T05:39:26.165Z,100663.00
2022-11-20T05:42:14.712Z,100669.20
2022-11-20T05:44:43.297Z,100667.80
2022-11-20T05:47:11.883Z,100667.80
2022-11-20T05:49:40.586Z,100663.40
2022-11-20T05:52:09.157Z,100662.60
2022-11-20T05:54:37.741Z,100661.60
2022-11-20T05:57:06.219Z,100660.80
2022-11-20T05:59:34.806Z,100657.80
2022-11-20T06:02:03.496Z,100658.80
2022-11-20T06:04:34.029Z,100656.20
2022-11-20T06:07:02.546Z,100652.00
2022-11-20T06:09:31.396Z,100650.20
2022-11-20T06:12:00.091Z,100646.60
2022-11-20T06:14:28.768Z,100651.40
2022-11-20T06:16:57.555Z,100654.20
2022-11-20T06:19:26.042Z,100653.60
2022-11-20T06:21:54.528Z,100653.00
2022-11-20T06:24:24.029Z,100654.80
2022-11-20T06:26:52.713Z,100654.60
2022-11-20T06:29:21.571Z,100657.40
2022-11-20T06:31:50.599Z,100658.00
2022-11-20T06:34:19.151Z,100655.80
2022-11-20T06:36:47.946Z,100655.80
2022-11-20T06:39:16.659Z,100657.00
2022-11-20T06:41:45.345Z,100657.20
2022-11-20T06:44:14.100Z,100657.20
2022-11-20T06:46:42.720Z,100651.00
2022-11-20T06:49:11.200Z,100649.20
2022-11-20T06:51:39.683Z,100652.00
2022-11-20T06:54:08.577Z,100647.40
2022-11-20T06:56:37.159Z,100654.00
2022-11-20T06:59:07.844Z,100653.60
2022-11-20T07:01:36.377Z,100648.80
2022-11-20T07:04:05.472Z,100648.80
2022-11-20T07:06:33.953Z,100647.80
2022-11-20T07:09:02.969Z,100644.00
2022-11-20T07:11:31.429Z,100645.20
2022-11-20T07:14:00.116Z,100645.60
2022-11-20T07:16:28.803Z,100639.80
2022-11-20T07:18:57.490Z,100644.40
2022-11-20T07:21:26.075Z,100643.80
2022-11-20T07:23:54.764Z,100644.60
2022-11-20T07:26:23.655Z,100648.20
2022-11-20T07:28:52.243Z,100639.40
2022-11-20T07:31:20.925Z,100639.60
2022-11-20T07:33:49.611Z,100639.60
2022-11-20T07:36:18.196Z,100640.80
2022-11-20T07:38:46.780Z,100641.60
2022-11-20T07:41:16.183Z,100644.80
2022-11-20T07:43:44.665Z,100644.80
2022-11-20T07:46:13.252Z,100647.40
2022-11-20T07:48:41.937Z,100646.80
2022-11-20T07:51:10.624Z,100645.20
2022-11-20T07:53:39.311Z,100648.80
2022-11-20T07:56:08.802Z,100640.80
2022-11-20T07:58:37.406Z,100638.80
2022-11-20T08:01:08.308Z,100630.40
2022-11-20T08:03:39.938Z,100635.80
2022-11-20T08:06:09.298Z,100624.40
2022-11-20T08:08:42.484Z,100631.20
2022-11-20T08:11:30.635Z,100626.60
2022-11-20T08:14:14.493Z,100617.40
2022-11-20T08:16:47.463Z,100615.80
2022-11-20T08:19:19.802Z,100620.00
2022-11-20T08:21:48.739Z,100621.80
2022-11-20T08:24:17.312Z,100626.00
2022-11-20T08:26:45.904Z,100625.60
2022-11-20T08:29:14.587Z,100622.00
2022-11-20T08:31:43.171Z,100612.20
2022-11-20T08:34:31.721Z,100612.60
2022-11-20T08:37:00.308Z,100611.40
2022-11-20T08:39:29.404Z,100611.60
2022-11-20T08:41:58.089Z,100616.60
2022-11-20T08:44:26.674Z,100618.00
2022-11-20T08:46:55.258Z,100613.60
2022-11-20T08:49:24.260Z,100611.20
2022-11-20T08:51:54.989Z,100603.40
2022-11-20T08:54:23.979Z,100602.20
2022-11-20T08:56:52.873Z,100599.00
2022-11-20T08:59:43.817Z,100601.20
2022-11-20T09:02:10.727Z,100602.60
2022-11-20T09:04:39.310Z,100594.80
2022-11-20T09:07:08.033Z,100601.20
2022-11-20T09:09:36.685Z,100600.00
2022-11-20T09:12:05.781Z,100607.60
2022-11-20T09:14:34.900Z,100603.20
2022-11-20T09:17:03.870Z,100602.40
2022-11-20T09:19:36.349Z,100608.00
2022-11-20T09:22:05.148Z,100601.80
2022-11-20T09:24:33.956Z,100598.20
2022-11-20T09:27:06.636Z,100593.60
2022-11-20T09:29:35.190Z,100592.00
2022-11-20T09:32:04.183Z,100588.20
2022-11-20T09:34:32.988Z,100580.60
2022-11-20T09:37:04.606Z,100579.40
2022-11-20T09:39:40.248Z,100574.60
2022-11-20T09:42:21.774Z,100578.20
2022-11-20T09:45:31.516Z,100573.80
2022-11-20T09:48:34.310Z,100576.00
2022-11-20T09:51:47.642Z,100574.40
2022-11-20T09:54:27.962Z,100563.20
2022-11-20T09:57:41.975Z,100557.00
2022-11-20T10:00:16.484Z,100549.20
2022-11-20T10:02:54.071Z,100550.00
2022-11-20T10:05:42.208Z,100550.60
2022-11-20T10:08:25.748Z,100551.00
2022-11-20T10:11:16.654Z,100553.40
2022-11-20T10:13:57.326Z,100554.80
2022-11-20T10:16:41.455Z,100555.00
2022-11-20T10:20:11.910Z,100553.20
2022-11-20T10:23:18.311Z,100549.00
2022-11-20T10:26:09.496Z,100549.00
2022-11-20T10:28:52.751Z,100554.40
2022-11-20T10:31:37.892Z,100555.40
2022-11-20T10:34:24.805Z,100548.60
2022-11-20T10:37:12.640Z,100547.80
2022-11-20T10:40:19.015Z,100542.00
2022-11-20T10:43:00.499Z,100542.00
2022-11-20T10:45:57.447Z,100534.20
2022-11-20T10:48:28.742Z,100528.20
2022-11-20T10:51:34.346Z,100523.20
2022-11-20T10:54:52.398Z,100514.20
2022-11-20T10:57:26.652Z,100512.40
2022-11-20T11:00:12.029Z,100515.00
2022-11-20T11:02:48.975Z,100514.20
2022-11-20T11:05:42.026Z,100516.20
2022-11-20T11:08:17.974Z,100515.00
2022-11-20T11:10:59.860Z,100515.20
2022-11-20T11:13:32.254Z,100510.60
2022-11-20T11:16:00.943Z,100509.00
2022-11-20T11:18:33.227Z,100501.40
2022-11-20T11:21:05.583Z,100510.00
2022-11-20T11:23:44.004Z,100503.80
2022-11-20T11:26:24.967Z,100495.00
2022-11-20T11:29:00.009Z,100509.00
2022-11-20T11:31:31.186Z,100503.60
2022-11-20T11:34:06.883Z,100505.20
2022-11-20T11:36:37.435Z,100504.00
2022-11-20T11:39:17.338Z,100499.40
2022-11-20T11:41:47.302Z,100498.80
2022-11-20T11:44:42.204Z,100499.80
2022-11-20T11:47:23.281Z,100498.20
2022-11-20T11:50:18.680Z,100495.40
2022-11-20T11:53:13.599Z,100501.60
2022-11-20T11:56:11.366Z,100494.40
2022-11-20T11:58:54.184Z,100501.60
2022-11-20T12:01:50.085Z,100504.40
2022-11-20T12:04:47.600Z,100502.00
2022-11-20T12:07:49.860Z,100500.40
2022-11-20T12:10:54.282Z,100492.60
2022-11-20T12:13:35.454Z,100490.20
2022-11-20T12:16:05.925Z,100493.20
2022-11-20T12:18:34.872Z,100478.80
2022-11-20T12:21:16.367Z,100478.20
2022-11-20T12:24:07.577Z,100480.00
2022-11-20T12:27:06.367Z,100479.00
2022-11-20T12:30:09.710Z,100482.60
2022-11-20T12:33:09.891Z,100472.20
2022-11-20T12:36:07.871Z,100479.40
2022-11-20T12:39:01.480Z,100477.60
2022-11-20T12:42:04.531Z,100472.40
2022-11-20T12:45:11.722Z,100473.60
2022-11-20T12:48:26.896Z,100476.40
2022-11-20T12:51:57.027Z,100475.80
2022-11-20T12:54:56.535Z,100470.40
2022-11-20T12:57:55.020Z,100468.80
2022-11-20T13:00:26.090Z,100469.60
2022-11-20T13:03:08.267Z,100464.20
2022-11-20T13:05:54.259Z,100465.60
2022-11-20T13:08:31.485Z,100457.60
2022-11-20T13:11:19.484Z,100453.60
2022-11-20T13:13:59.742Z,100451.60
2022-11-20T13:17:19.630Z,100448.60
2022-11-20T13:19:56.208Z,100445.20
2022-11-20T13:22:59.090Z,100444.00
2022-11-20T13:25:31.228Z,100444.00
2022-11-20T13:28:11.006Z,100441.80
2022-11-20T13:30:52.987Z,100446.80
2022-11-20T13:33:36.481Z,100444.20
2022-11-20T13:36:24.470Z,100438.00
2022-11-20T13:38:56.140Z,100437.40
2022-11-20T13:41:42.502Z,100437.00
2022-11-20T13:44:26.734Z,100438.20
2022-11-20T13:47:00.970Z,100429.00
2022-11-20T13:49:46.177Z,100428.20
2022-11-20T13:52:25.618Z,100427.60
2022-11-20T13:55:02.673Z,100421.60
2022-11-20T13:57:49.409Z,100424.20
2022-11-20T14:00:21.699Z,100419.80
2022-11-20T14:03:18.118Z,100427.20
2022-11-20T14:06:07.552Z,100423.20
2022-11-20T14:08:52.060Z,100419.60
2022-11-20T14:11:22.172Z,100421.00
2022-11-20T14:14:30.503Z,100417.40
2022-11-20T14:17:26.431Z,100414.80
2022-11-20T14:19:56.408Z,100408.20
2022-11-20T14:22:27.879Z,100413.20
2022-11-20T14:25:28.720Z,100412.60
2022-11-20T14:28:02.015Z,100409.80
2022-11-20T14:30:46.067Z,100411.00
2022-11-20T14:33:16.478Z,100410.40
2022-11-20T14:35:57.393Z,100408.00
2022-11-20T14:38:29.948Z,100406.40
2022-11-20T14:41:10.667Z,100411.60
2022-11-20T14:43:39.501Z,100408.40
2022-11-20T14:46:11.500Z,100410.60
2022-11-20T14:48:50.652Z,100411.40
2022-11-20T14:51:42.458Z,100409.60
2022-11-20T14:54:20.319Z,100409.80
2022-11-20T14:57:05.399Z,100401.40
2022-11-20T14:59:36.033Z,100394.80
2022-11-20T15:02:12.403Z,100396.60
2022-11-20T15:05:04.491Z,100395.60
2022-11-20T15:07:41.421Z,100395.80
2022-11-20T15:10:13.219Z,100389.60
2022-11-20T15:12:51.661Z,100388.80
2022-11-20T15:15:40.756Z,100387.80
2022-11-20T15:18:44.477Z,100387.80
2022-11-20T15:21:18.750Z,100379.20
2022-11-20T15:23:47.473Z,100380.80
2022-11-20T15:26:29.224Z,100383.00
2022-11-20T15:28:57.746Z,100382.60
2022-11-20T15:31:26.637Z,100376.40
2022-11-20T15:33:55.222Z,100368.60
2022-11-20T15:36:23.807Z,100375.00
2022-11-20T15:38:52.391Z,100369.80
2022-11-20T15:41:22.957Z,100370.40
2022-11-20T15:43:52.119Z,100369.00
2022-11-20T15:46:29.219Z,100360.80
2022-11-20T15:48:58.772Z,100363.60
2022-11-20T15:51:35.593Z,100366.60
2022-11-20T15:54:21.608Z,100361.80
2022-11-20T15:56:54.535Z,100363.40
2022-11-20T15:59:23.154Z,100362.00
2022-11-20T16:01:51.868Z,100359.00
2022-11-20T16:04:20.979Z,100359.00
2022-11-20T16:06:49.938Z,100361.80
2022-11-20T16:09:18.616Z,100361.00
2022-11-20T16:11:47.407Z,100369.20
2022-11-20T16:14:34.651Z,100367.80
2022-11-20T16:17:04.447Z,100366.80
2022-11-20T16:19:32.925Z,100362.40
2022-11-20T16:22:04.482Z,100358.00
2022-11-20T16:24:33.175Z,100356.60
2022-11-20T16:27:01.853Z,100356.40
2022-11-20T16:29:30.436Z,100359.00
2022-11-20T16:31:59.123Z,100361.40
2022-11-20T16:34:28.062Z,100364.60
2022-11-20T16:36:57.110Z,100370.60
2022-11-20T16:39:26.594Z,100370.00
2022-11-20T16:41:55.303Z,100372.00
2022-11-20T16:44:24.017Z,100372.00
2022-11-20T16:46:52.777Z,100378.00
2022-11-20T16:49:21.466Z,100378.20
2022-11-20T16:51:50.358Z,100381.40
2022-11-20T16:54:21.188Z,100382.60
2022-11-20T16:56:52.151Z,100385.20
2022-11-20T16:59:20.923Z,100386.60
2022-11-20T17:01:50.274Z,100389.40
2022-11-20T17:04:19.117Z,100393.60
2022-11-20T17:06:48.330Z,100395.00
2022-11-20T17:09:17.302Z,100397.60
2022-11-20T17:11:45.996Z,100397.40
2022-11-20T17:14:14.685Z,100398.00
2022-11-20T17:16:43.371Z,100392.40
2022-11-20T17:19:12.904Z,100395.40
2022-11-20T17:21:41.970Z,100388.80
2022-11-20T17:24:13.532Z,100386.40
2022-11-20T17:26:44.803Z,100390.20
2022-11-20T17:29:19.150Z,100387.40
2022-11-20T17:31:49.109Z,100389.80
2022-11-20T17:34:18.174Z,100388.00
2022-11-20T17:36:46.891Z,100385.60
2022-11-20T17:39:17.682Z,100387.20
2022-11-20T17:42:06.590Z,100387.40
2022-11-20T17:44:35.381Z,100392.20
2022-11-20T17:47:04.372Z,100395.80
2022-11-20T17:49:32.855Z,100397.60
2022-11-20T17:52:01.470Z,100397.20
2022-11-20T17:54:30.228Z,100395.60
2022-11-20T17:57:17.347Z,100399.20
2022-11-20T17:59:45.932Z,100395.00
2022-11-20T18:02:14.518Z,100391.80
2022-11-20T18:04:43.385Z,100391.20
2022-11-20T18:07:12.135Z,100383.40
2022-11-20T18:09:40.884Z,100384.80
2022-11-20T18:12:09.578Z,100383.80
2022-11-20T18:14:38.175Z,100384.20
2022-11-20T18:17:10.672Z,100380.80
2022-11-20T18:19:55.600Z,100378.20
2022-11-20T18:22:31.562Z,100377.40
2022-11-20T18:25:00.143Z,100378.00
2022-11-20T18:27:28.828Z,100376.40
2022-11-20T18:29:57.412Z,100367.20
2022-11-20T18:32:25.893Z,100365.40
2022-11-20T18:34:54.585Z,100367.20
2022-11-20T18:37:23.168Z,100364.80
2022-11-20T18:39:52.029Z,100365.60
2022-11-20T18:42:39.073Z,100356.40
2022-11-20T18:45:08.444Z,100359.40
2022-11-20T18:47:40.433Z,100352.40
2022-11-20T18:50:10.593Z,100357.40
2022-11-20T18:52:44.653Z,100353.60
2022-11-20T18:55:14.123Z,100351.40
2022-11-20T18:57:42.665Z,100349.60
2022-11-20T19:00:12.944Z,100349.40
2022-11-20T19:02:43.285Z,100350.80
2022-11-20T19:05:14.828Z,100354.80
2022-11-20T19:07:43.734Z,100355.80
2022-11-20T19:10:12.466Z,100346.80
2022-11-20T19:12:41.034Z,100340.00
2022-11-20T19:15:10.422Z,100341.40
2022-11-20T19:17:39.121Z,100337.40
2022-11-20T19:20:08.511Z,100338.80
2022-11-20T19:22:39.544Z,100335.00
2022-11-20T19:25:09.308Z,100339.00
2022-11-20T19:27:38.892Z,100330.60
2022-11-20T19:30:09.686Z,100327.20
2022-11-20T19:32:38.205Z,100330.20
2022-11-20T19:35:07.888Z,100331.40
2022-11-20T19:37:37.122Z,100334.40
2022-11-20T19:40:07.608Z,100337.40
2022-11-20T19:42:36.128Z,100345.00
2022-11-20T19:45:06.731Z,100349.20
2022-11-20T19:48:01.009Z,100349.40
2022-11-20T19:50:26.054Z,100344.60
2022-11-20T19:52:58.709Z,100345.80
2022-11-20T19:55:29.100Z,100345.60
2022-11-20T19:57:57.842Z,100342.00
2022-11-20T20:00:31.215Z,100345.40
2022-11-20T20:03:01.782Z,100342.80
2022-11-20T20:05:31.831Z,100340.00
2022-11-20T20:08:00.278Z,100339.20
2022-11-20T20:10:31.064Z,100337.60
2022-11-20T20:13:00.709Z,100340.40
2022-11-20T20:15:29.302Z,100334.20
2022-11-20T20:17:58.088Z,100336.40
2022-11-20T20:20:28.080Z,100338.20
2022-11-20T20:22:57.509Z,100342.00
2022-11-20T20:25:27.015Z,100344.20
2022-11-20T20:27:56.931Z,100346.00
2022-11-20T20:30:25.833Z,100351.60
2022-11-20T20:32:56.562Z,100345.40
2022-11-20T20:35:28.182Z,100347.80
2022-11-20T20:37:58.639Z,100343.80
2022-11-20T20:40:28.772Z,100338.60
2022-11-20T20:42:57.962Z,100343.80
2022-11-20T20:45:28.799Z,100344.60
2022-11-20T20:47:58.719Z,100347.20
2022-11-20T20:50:28.594Z,100342.80
2022-11-20T20:52:58.239Z,100337.40
2022-11-20T20:55:27.821Z,100332.60
2022-11-20T20:57:56.330Z,100323.40
2022-11-20T21:00:26.376Z,100321.20
2022-11-20T21:02:55.034Z,100325.80
2022-11-20T21:05:23.515Z,100320.00
2022-11-20T21:08:10.840Z,100319.00
2022-11-20T21:10:39.526Z,100323.80
2022-11-20T21:13:08.213Z,100323.80
2022-11-20T21:15:40.599Z,100321.40
2022-11-20T21:18:10.772Z,100326.80
2022-11-20T21:21:01.418Z,100318.80
2022-11-20T21:23:32.707Z,100318.00
2022-11-20T21:26:07.421Z,100316.00
2022-11-20T21:28:37.933Z,100314.80
2022-11-20T21:31:13.186Z,100311.60
2022-11-20T21:33:46.755Z,100306.20
2022-11-20T21:36:20.838Z,100310.00
2022-11-20T21:38:53.683Z,100311.60
2022-11-20T21:41:25.179Z,100315.80
2022-11-20T21:44:29.765Z,100314.20
2022-11-20T21:46:46.790Z,100316.60
2022-11-20T21:49:17.822Z,100316.00
2022-11-20T21:51:46.483Z,100312.60
2022-11-20T21:54:15.131Z,100310.60
2022-11-20T21:56:43.649Z,100303.20
2022-11-20T21:59:14.226Z,100297.60
2022-11-20T22:01:43.074Z,100299.00
2022-11-20T22:04:15.957Z,100302.60
2022-11-20T22:06:44.545Z,100301.60
2022-11-20T22:09:13.232Z,100311.00
2022-11-20T22:11:41.818Z,100314.20
2022-11-20T22:14:24.297Z,100307.20
2022-11-20T22:16:54.137Z,100307.00
2022-11-20T22:19:23.629Z,100302.80
2022-11-20T22:21:52.365Z,100303.20
2022-11-20T22:24:23.212Z,100301.80
2022-11-20T22:26:52.160Z,100302.60
2022-11-20T22:29:21.885Z,100297.00
2022-11-20T22:31:54.041Z,100296.80
2022-11-20T22:34:23.007Z,100292.40
2022-11-20T22:36:52.025Z,100292.00
2022-11-20T22:39:23.106Z,100288.60
2022-11-20T22:41:51.758Z,100287.00
2022-11-20T22:44:20.339Z,100283.60
2022-11-20T22:46:48.822Z,100281.40
2022-11-20T22:49:17.405Z,100274.80
2022-11-20T22:51:45.989Z,100270.00
2022-11-20T22:54:14.783Z,100263.80
2022-11-20T22:56:43.471Z,100258.20
2022-11-20T22:59:12.666Z,100263.60
2022-11-20T23:01:41.249Z,100266.00
2022-11-20T23:04:11.876Z,100262.00
2022-11-20T23:06:40.568Z,100260.40
2022-11-20T23:09:10.109Z,100258.00
2022-11-20T23:11:39.275Z,100254.80
2022-11-20T23:14:16.185Z,100258.60
2022-11-20T23:16:44.636Z,100252.20
2022-11-20T23:19:14.854Z,100249.00
2022-11-20T23:21:44.054Z,100239.20
2022-11-20T23:24:12.742Z,100234.60
2022-11-20T23:26:42.149Z,100229.40
2022-11-20T23:29:10.795Z,100230.20
2022-11-20T23:31:39.931Z,100230.00
2022-11-20T23:34:08.417Z,100221.80
2022-11-20T23:36:37.713Z,100226.60
2022-11-20T23:39:06.195Z,100221.40
2022-11-20T23:41:35.187Z,100217.80
2022-11-20T23:44:04.593Z,100214.80
2022-11-20T23:46:33.176Z,100210.80
2022-11-20T23:49:01.761Z,100211.40
2022-11-20T23:51:30.344Z,100198.20
2022-11-20T23:54:03.386Z,100201.20
2022-11-20T23:56:33.662Z,100195.40
2022-11-20T23:59:02.142Z,100196.20
